Kawkawlin, MI (48631)

5:14 AM EDT on June 24, 2017 (GMT -0400)
J | | Change Station
Active Advisory: Flood Warning

Elev 593 ft 43.63 °N, 83.92 °W | Updated 6 seconds ago

Partly Cloudy
Partly Cloudy
59.4 °F
Feels Like 59.4 °F
N
0.0
Wind Variable Wind from NW
Gusts 0.0 mph

Today
High -- | Low -- °F
--% Chance of Precip.
Yesterday
High -- | Low -- °F
Precip. -- in
Pressure 29.75 in
Visibility 10.0 miles
Clouds Few 9000 ft
Dew Point 58 °F
Humidity 96%
Rainfall 0.00 in
Snow Depth Not available.
5:55 AM 9:21 PM
New Moon, 0% visible
METAR KMBS 240853Z AUTO 28006KT 10SM FEW090 16/14 A2976 RMK AO2 SLP074 T01560139 53009
Pressure 29.75 in
Visibility 10.0 miles
Clouds Few 9000 ft
Dew Point 58 °F
Humidity 96%
Rainfall 0.00 in
Snow Depth Not available.
5:55 AM 9:21 PM
New Moon, 0% visible
METAR KMBS 240853Z AUTO 28006KT 10SM FEW090 16/14 A2976 RMK AO2 SLP074 T01560139 53009

Get Your Daily Forecast Email!

Thanks for signing up!

Be on the lookout for a verification email in your inbox.

You'll start receiving severe weather alerts in your inbox..

×

10-Day Weather Forecast

Almanac

Astronomy

Jun. 24, 2017 Rise Set
Actual Time
Civil Twilight
Nautical Twilight
Astronomical Twilight
Moon
Length of Visible Light
Length of Day
Tomorrow will be .
, % of the Moon is Illuminated

Today's Extremes

State Highs State Lows

Community

WunderPhotos

Category 6

Welcome to Category 6. This is the collective home for Weather Underground's featured writeups by Dr. Jeff Masters (right), Bob Henson (left), Chris Burt, and other regular contributors.

Nearby

Air Quality

  Air Quality AQ Index Pollutant
Not available.

Snow Depth

Station Depth Elevation

Earthquake Activity

City Distance Mag. Time & Date
Minimum magnitude displayed is 2.5.

Coastal Water Temperatures

Place Temperature

Stations

Nearby Weather Stations

Station Location Temp. Windchill Dew Point Humidity Wind Precip. Elev Updated Type
                   

Watches & Warnings

Flood Warning
Issued: 11:24 PM EDT Jun. 23, 2017 – National Weather Service

A Flood Warning continues for
Saginaw river at Saginaw.
* From now until further notice.
* At 11 PM Friday the stage is 15.7 feet and rising.
* Flood stage is 17.0 feet.
* Moderate flooding is forecast.
* Forecast is to rise above flood stage by early tomorrow...
and crest around 20.4 feet Sunday evening.



Lat... Lon 4341 8399 4365 8387 4363 8378 4339 8389